createdAt,value
2019-02-12T00:01:26.378Z,40.60
2019-02-12T00:03:52.539Z,40.80
2019-02-12T00:06:18.696Z,40.60
2019-02-12T00:08:45.605Z,41.40
2019-02-12T00:11:11.767Z,40.80
2019-02-12T00:13:37.925Z,40.80
2019-02-12T00:16:04.083Z,40.90
2019-02-12T00:18:30.241Z,40.70
2019-02-12T00:20:56.456Z,40.80
2019-02-12T00:23:22.589Z,40.80
2019-02-12T00:25:48.732Z,40.60
2019-02-12T00:28:14.883Z,40.80
2019-02-12T00:30:41.045Z,40.90
2019-02-12T00:33:07.196Z,40.60
2019-02-12T00:35:33.350Z,40.70
2019-02-12T00:37:59.512Z,40.60
2019-02-12T00:40:25.661Z,40.70
2019-02-12T00:42:51.813Z,40.80
2019-02-12T00:45:17.960Z,40.60
2019-02-12T00:47:44.881Z,40.60
2019-02-12T00:50:11.033Z,40.60
2019-02-12T00:52:37.181Z,40.80
2019-02-12T00:55:03.325Z,40.80
2019-02-12T00:57:29.472Z,40.70
2019-02-12T00:59:55.621Z,40.70
2019-02-12T01:02:21.776Z,40.80
2019-02-12T01:04:47.929Z,40.70
2019-02-12T01:07:14.100Z,40.80
2019-02-12T01:09:40.266Z,40.80
2019-02-12T01:12:06.420Z,40.90
2019-02-12T01:14:32.584Z,40.90
2019-02-12T01:16:58.734Z,40.80
2019-02-12T01:19:24.884Z,40.70
2019-02-12T01:21:51.055Z,40.90
2019-02-12T01:24:17.212Z,40.80
2019-02-12T01:26:44.126Z,40.90
2019-02-12T01:29:10.281Z,40.90
2019-02-12T01:31:36.434Z,40.90
2019-02-12T01:34:02.591Z,40.90
2019-02-12T01:36:28.744Z,41.00
2019-02-12T01:38:54.892Z,40.90
2019-02-12T01:41:21.048Z,40.90
2019-02-12T01:43:47.197Z,40.80
2019-02-12T01:46:13.352Z,40.70
2019-02-12T01:48:39.507Z,40.80
2019-02-12T01:51:06.426Z,40.80
2019-02-12T01:53:32.579Z,40.80
2019-02-12T01:55:58.747Z,41.00
2019-02-12T01:58:24.911Z,40.90
2019-02-12T02:00:51.074Z,40.90
2019-02-12T02:03:17.225Z,41.00
2019-02-12T02:05:43.381Z,40.90
2019-02-12T02:08:09.528Z,40.90
2019-02-12T02:10:35.681Z,40.80
2019-02-12T02:13:01.838Z,40.90
2019-02-12T02:15:27.998Z,40.80
2019-02-12T02:17:54.141Z,40.80
2019-02-12T02:20:20.292Z,40.80
2019-02-12T02:22:46.435Z,40.80
2019-02-12T02:25:12.591Z,40.90
2019-02-12T02:27:38.733Z,40.80
2019-02-12T02:30:04.889Z,40.90
2019-02-12T02:32:31.042Z,40.80
2019-02-12T02:34:57.185Z,40.80
2019-02-12T02:37:23.346Z,40.80
2019-02-12T02:39:49.506Z,40.80
2019-02-12T02:42:15.662Z,40.80
2019-02-12T02:44:41.817Z,40.90
2019-02-12T02:47:07.961Z,40.90
2019-02-12T02:49:34.116Z,41.00
2019-02-12T02:52:00.290Z,40.90
2019-02-12T02:54:26.612Z,40.90
2019-02-12T02:56:52.760Z,41.00
2019-02-12T02:59:18.927Z,40.90
2019-02-12T03:01:45.073Z,41.00
2019-02-12T03:04:11.222Z,41.00
2019-02-12T03:06:37.371Z,41.00
2019-02-12T03:09:03.533Z,41.00
2019-02-12T03:11:29.680Z,41.00
2019-02-12T03:13:55.839Z,41.00
2019-02-12T03:16:21.985Z,41.10
2019-02-12T03:18:48.139Z,41.00
2019-02-12T03:21:14.316Z,41.70
2019-02-12T03:23:40.466Z,41.10
2019-02-12T03:26:06.616Z,41.10
2019-02-12T03:28:32.787Z,41.10
2019-02-12T03:30:58.928Z,41.20
2019-02-12T03:33:25.098Z,41.10
2019-02-12T03:35:51.248Z,41.10
2019-02-12T03:38:17.586Z,41.00
2019-02-12T03:40:43.744Z,41.20
2019-02-12T03:43:09.892Z,41.20
2019-02-12T03:45:36.037Z,41.10
2019-02-12T03:48:02.211Z,41.20
2019-02-12T03:50:28.361Z,41.20
2019-02-12T03:52:54.510Z,41.20
2019-02-12T03:55:20.682Z,41.20
2019-02-12T03:57:46.845Z,41.10
2019-02-12T04:00:13.026Z,41.20
2019-02-12T04:02:39.176Z,41.10
2019-02-12T04:05:05.336Z,41.10
2019-02-12T04:07:31.480Z,41.00
2019-02-12T04:09:57.642Z,41.20
2019-02-12T04:12:23.804Z,41.10
2019-02-12T04:14:49.971Z,41.10
2019-02-12T04:17:16.116Z,41.10
2019-02-12T04:19:42.285Z,41.10
2019-02-12T04:22:08.424Z,41.10
2019-02-12T04:24:34.593Z,41.10
2019-02-12T04:27:00.745Z,41.10
2019-02-12T04:29:26.916Z,41.10
2019-02-12T04:31:53.827Z,41.20
2019-02-12T04:34:19.999Z,41.20
2019-02-12T04:36:46.167Z,41.10
2019-02-12T04:39:12.325Z,41.20
2019-02-12T04:41:38.485Z,41.20
2019-02-12T04:44:04.639Z,41.20
2019-02-12T04:46:30.788Z,41.20
2019-02-12T04:48:56.938Z,41.20
2019-02-12T04:51:23.077Z,41.20
2019-02-12T04:53:49.230Z,41.00
2019-02-12T04:56:15.385Z,41.20
2019-02-12T04:58:41.547Z,41.20
2019-02-12T05:01:07.713Z,41.10
2019-02-12T05:03:33.869Z,41.10
2019-02-12T05:06:00.039Z,41.10
2019-02-12T05:08:26.184Z,41.20
2019-02-12T05:10:52.338Z,41.10
2019-02-12T05:13:18.490Z,41.20
2019-02-12T05:15:45.385Z,41.20
2019-02-12T05:18:11.544Z,41.10
2019-02-12T05:20:37.725Z,41.20
2019-02-12T05:23:04.645Z,41.10
2019-02-12T05:25:30.802Z,41.10
2019-02-12T05:27:56.958Z,41.10
2019-02-12T05:30:23.113Z,41.10
2019-02-12T05:32:49.263Z,40.90
2019-02-12T05:35:16.180Z,41.00
2019-02-12T05:37:42.349Z,41.00
2019-02-12T05:40:08.505Z,41.00
2019-02-12T05:42:35.441Z,41.10
2019-02-12T05:45:01.596Z,41.10
2019-02-12T05:47:27.789Z,41.10
2019-02-12T05:49:53.941Z,41.20
2019-02-12T05:52:20.118Z,41.20
2019-02-12T05:54:46.278Z,41.10
2019-02-12T05:57:12.446Z,41.00
2019-02-12T05:59:38.603Z,41.00
2019-02-12T06:02:05.537Z,41.00
2019-02-12T06:04:31.690Z,41.10
2019-02-12T06:06:57.860Z,41.10
2019-02-12T06:09:24.012Z,41.10
2019-02-12T06:11:50.177Z,41.10
2019-02-12T06:14:17.089Z,41.10
2019-02-12T06:16:43.244Z,41.00
2019-02-12T06:19:11.521Z,41.10
2019-02-12T06:21:35.590Z,41.10
2019-02-12T06:24:01.750Z,41.20
2019-02-12T06:26:27.892Z,41.20
2019-02-12T06:28:54.041Z,41.10
2019-02-12T06:31:20.197Z,41.20
2019-02-12T06:33:46.353Z,41.10
2019-02-12T06:36:12.497Z,41.00
2019-02-12T06:38:38.646Z,41.10
2019-02-12T06:41:04.793Z,41.10
2019-02-12T06:43:30.942Z,41.10
2019-02-12T06:45:57.089Z,41.10
2019-02-12T06:48:23.245Z,41.20
2019-02-12T06:50:49.404Z,41.10
2019-02-12T06:53:15.553Z,41.20
2019-02-12T06:55:41.708Z,41.00
2019-02-12T06:58:07.877Z,41.00
2019-02-12T07:00:34.034Z,41.10
2019-02-12T07:03:00.232Z,41.10
2019-02-12T07:05:26.391Z,41.00
2019-02-12T07:07:52.601Z,41.10
2019-02-12T07:10:19.543Z,41.10
2019-02-12T07:12:45.695Z,41.10
2019-02-12T07:15:11.842Z,41.00
2019-02-12T07:17:38.013Z,41.10
2019-02-12T07:20:04.352Z,41.10
2019-02-12T07:22:30.507Z,41.00
2019-02-12T07:24:56.661Z,41.00
2019-02-12T07:27:22.825Z,40.90
2019-02-12T07:29:48.979Z,40.90
2019-02-12T07:32:15.141Z,41.00
2019-02-12T07:34:41.312Z,41.10
2019-02-12T07:37:07.512Z,41.00
2019-02-12T07:39:33.668Z,41.00
2019-02-12T07:41:59.816Z,41.00
2019-02-12T07:44:26.019Z,41.00
2019-02-12T07:46:52.167Z,41.00
2019-02-12T07:49:18.308Z,40.90
2019-02-12T07:51:44.456Z,41.00
2019-02-12T07:54:10.611Z,41.00
2019-02-12T07:56:36.780Z,41.00
2019-02-12T07:59:03.696Z,40.50
2019-02-12T08:01:29.844Z,41.70
2019-02-12T08:03:56.000Z,41.00
2019-02-12T08:06:22.178Z,41.10
2019-02-12T08:08:48.481Z,41.00
2019-02-12T08:11:14.636Z,41.00
2019-02-12T08:13:40.784Z,41.10
2019-02-12T08:16:08.266Z,41.00
2019-02-12T08:18:33.150Z,41.10
2019-02-12T08:20:59.304Z,41.10
2019-02-12T08:23:25.455Z,41.90
2019-02-12T08:25:51.625Z,41.10
2019-02-12T08:28:17.781Z,41.10
2019-02-12T08:30:43.949Z,41.10
2019-02-12T08:33:10.113Z,41.10
2019-02-12T08:35:36.276Z,41.10
2019-02-12T08:38:02.860Z,40.90
2019-02-12T08:40:29.037Z,41.10
2019-02-12T08:42:55.184Z,41.00
2019-02-12T08:45:21.335Z,41.10
2019-02-12T08:47:47.484Z,41.00
2019-02-12T08:50:13.645Z,41.10
2019-02-12T08:52:39.823Z,42.00
2019-02-12T08:55:05.972Z,41.10
2019-02-12T08:57:32.135Z,41.20
2019-02-12T08:59:58.290Z,41.30
2019-02-12T09:02:24.437Z,41.30
2019-02-12T09:04:50.588Z,41.40
2019-02-12T09:07:16.736Z,41.20
2019-02-12T09:09:42.905Z,41.20
2019-02-12T09:12:09.293Z,41.10
2019-02-12T09:14:35.436Z,41.20
2019-02-12T09:17:01.609Z,41.20
2019-02-12T09:19:27.817Z,41.30
2019-02-12T09:21:53.991Z,41.30
2019-02-12T09:24:20.909Z,41.40
2019-02-12T09:26:47.080Z,41.30
2019-02-12T09:29:13.235Z,41.30
2019-02-12T09:31:39.409Z,41.40
2019-02-12T09:34:05.770Z,41.50
2019-02-12T09:36:31.932Z,41.50
2019-02-12T09:38:58.085Z,41.40
2019-02-12T09:41:24.265Z,41.40
2019-02-12T09:43:50.418Z,41.40
2019-02-12T09:46:16.567Z,41.40
2019-02-12T09:48:42.720Z,41.40
2019-02-12T09:51:08.874Z,41.50
2019-02-12T09:53:35.031Z,41.50
2019-02-12T09:56:01.187Z,41.50
2019-02-12T09:58:28.109Z,41.50
2019-02-12T10:00:54.268Z,41.50
2019-02-12T10:03:20.437Z,41.50
2019-02-12T10:05:46.602Z,41.60
2019-02-12T10:08:12.780Z,41.60
2019-02-12T10:10:38.928Z,41.60
2019-02-12T10:13:05.078Z,41.70
2019-02-12T10:15:31.236Z,41.60
2019-02-12T10:17:57.416Z,41.70
2019-02-12T10:20:23.574Z,41.80
2019-02-12T10:22:49.724Z,41.70
2019-02-12T10:25:15.881Z,41.60
2019-02-12T10:27:42.032Z,41.60
2019-02-12T10:30:08.200Z,41.60
2019-02-12T10:32:34.377Z,41.70
2019-02-12T10:35:00.526Z,41.80
2019-02-12T10:37:26.686Z,41.90
2019-02-12T10:39:52.855Z,41.80
2019-02-12T10:42:19.004Z,41.80
2019-02-12T10:44:45.155Z,41.80
2019-02-12T10:47:11.323Z,41.80
2019-02-12T10:49:37.488Z,41.90
2019-02-12T10:52:03.633Z,41.90
2019-02-12T10:54:30.566Z,41.90
2019-02-12T10:56:56.883Z,41.90
2019-02-12T10:59:23.032Z,41.90
2019-02-12T11:01:49.184Z,42.00
2019-02-12T11:04:15.332Z,41.90
2019-02-12T11:06:41.488Z,42.00
2019-02-12T11:09:07.640Z,41.90
2019-02-12T11:11:34.567Z,42.00
2019-02-12T11:14:00.729Z,42.00
2019-02-12T11:16:26.876Z,42.10
2019-02-12T11:18:53.048Z,42.10
2019-02-12T11:21:19.196Z,42.10
2019-02-12T11:23:45.368Z,42.10
2019-02-12T11:26:11.518Z,42.10
2019-02-12T11:28:37.672Z,42.20
2019-02-12T11:31:03.823Z,42.20
2019-02-12T11:33:29.981Z,42.30
2019-02-12T11:35:56.124Z,42.30
2019-02-12T11:38:23.045Z,42.30
2019-02-12T11:40:49.200Z,42.30
2019-02-12T11:43:15.348Z,42.30
2019-02-12T11:45:41.497Z,42.30
2019-02-12T11:48:07.640Z,42.30
2019-02-12T11:50:33.816Z,42.40
2019-02-12T11:52:59.960Z,42.40
2019-02-12T11:55:26.135Z,42.40
2019-02-12T11:57:52.291Z,42.40
2019-02-12T12:00:19.329Z,42.40
2019-02-12T12:02:45.489Z,42.40
2019-02-12T12:05:11.648Z,42.40
2019-02-12T12:07:37.792Z,42.40
2019-02-12T12:10:03.982Z,42.40
2019-02-12T12:12:30.137Z,42.40
2019-02-12T12:14:56.289Z,42.50
2019-02-12T12:17:22.446Z,42.50
2019-02-12T12:19:48.600Z,42.40
2019-02-12T12:22:14.753Z,42.40
2019-02-12T12:24:40.900Z,42.40
2019-02-12T12:27:07.048Z,42.50
2019-02-12T12:29:33.197Z,42.40
2019-02-12T12:31:59.463Z,42.40
2019-02-12T12:34:25.612Z,42.50
2019-02-12T12:36:51.757Z,42.50
2019-02-12T12:39:17.904Z,42.40
2019-02-12T12:41:44.053Z,42.40
2019-02-12T12:44:10.210Z,42.40
2019-02-12T12:46:36.365Z,42.40
2019-02-12T12:49:02.514Z,42.40
2019-02-12T12:51:28.684Z,42.40
2019-02-12T12:53:54.830Z,42.50
2019-02-12T12:56:20.992Z,42.30
2019-02-12T12:58:47.156Z,42.40
2019-02-12T13:01:13.324Z,42.30
2019-02-12T13:03:39.478Z,42.30
2019-02-12T13:06:05.625Z,42.30
2019-02-12T13:08:31.776Z,42.30
2019-02-12T13:10:57.933Z,42.20
2019-02-12T13:13:24.089Z,42.20
2019-02-12T13:15:50.235Z,42.20
2019-02-12T13:18:17.572Z,42.20
2019-02-12T13:20:44.496Z,42.90
2019-02-12T13:23:10.652Z,42.10
2019-02-12T13:25:36.802Z,42.10
2019-02-12T13:28:02.944Z,42.10
2019-02-12T13:30:29.093Z,42.20
2019-02-12T13:32:55.267Z,42.10
2019-02-12T13:35:21.432Z,42.10
2019-02-12T13:37:47.592Z,42.00
2019-02-12T13:40:13.752Z,42.10
2019-02-12T13:42:39.917Z,42.10
2019-02-12T13:45:06.080Z,42.00
2019-02-12T13:47:32.240Z,42.00
2019-02-12T13:49:59.333Z,42.00
2019-02-12T13:52:24.592Z,41.90
2019-02-12T13:54:50.746Z,41.90
2019-02-12T13:57:16.893Z,42.10
2019-02-12T13:59:43.047Z,42.00
2019-02-12T14:02:09.222Z,41.90
2019-02-12T14:04:35.368Z,42.70
2019-02-12T14:07:01.524Z,41.90
2019-02-12T14:09:27.683Z,41.90
2019-02-12T14:11:53.833Z,41.90
2019-02-12T14:14:19.996Z,41.80
2019-02-12T14:16:46.140Z,41.70
2019-02-12T14:19:12.309Z,41.90
2019-02-12T14:21:38.467Z,41.80
2019-02-12T14:24:04.631Z,41.70
2019-02-12T14:26:30.800Z,41.60
2019-02-12T14:28:56.976Z,41.60
2019-02-12T14:31:23.150Z,41.70
2019-02-12T14:33:49.327Z,41.60
2019-02-12T14:36:15.474Z,41.70
2019-02-12T14:38:41.633Z,41.60
2019-02-12T14:41:07.784Z,41.60
2019-02-12T14:43:33.942Z,41.60
2019-02-12T14:46:00.089Z,41.60
2019-02-12T14:48:26.233Z,41.60
2019-02-12T14:50:52.382Z,41.50
2019-02-12T14:53:18.528Z,41.50
2019-02-12T14:55:45.444Z,41.60
2019-02-12T14:58:11.592Z,41.50
2019-02-12T15:00:37.736Z,41.60
2019-02-12T15:03:03.886Z,41.60
2019-02-12T15:05:30.036Z,41.60
2019-02-12T15:07:56.178Z,41.60
2019-02-12T15:10:22.340Z,41.50
2019-02-12T15:12:48.496Z,41.50
2019-02-12T15:15:14.663Z,41.70
2019-02-12T15:17:40.818Z,41.60
2019-02-12T15:20:06.988Z,41.60
2019-02-12T15:22:33.966Z,41.60
2019-02-12T15:25:00.175Z,41.70
2019-02-12T15:27:26.308Z,41.70
2019-02-12T15:29:52.455Z,41.60
2019-02-12T15:32:18.620Z,41.60
2019-02-12T15:34:44.765Z,41.70
2019-02-12T15:37:10.924Z,41.60
2019-02-12T15:39:37.068Z,41.70
2019-02-12T15:42:03.224Z,41.70
2019-02-12T15:44:29.369Z,41.80
2019-02-12T15:46:55.512Z,41.80
2019-02-12T15:49:22.423Z,41.80
2019-02-12T15:51:48.587Z,41.70
2019-02-12T15:54:14.734Z,41.80
2019-02-12T15:56:40.904Z,41.80
2019-02-12T15:59:07.285Z,41.90
2019-02-12T16:01:33.460Z,42.00
2019-02-12T16:04:00.214Z,42.00
2019-02-12T16:06:25.969Z,42.00
2019-02-12T16:08:53.838Z,41.90
2019-02-12T16:11:19.076Z,42.00
2019-02-12T16:13:44.512Z,41.90
2019-02-12T16:16:10.663Z,42.00
2019-02-12T16:18:37.576Z,42.10
2019-02-12T16:21:03.731Z,42.00
2019-02-12T16:23:29.878Z,42.00
2019-02-12T16:25:59.511Z,42.80
2019-02-12T16:28:22.220Z,42.10
2019-02-12T16:30:48.373Z,42.10
2019-02-12T16:33:14.527Z,42.20
2019-02-12T16:35:40.676Z,42.20
2019-02-12T16:38:06.831Z,42.20
2019-02-12T16:40:33.146Z,42.30
2019-02-12T16:42:59.318Z,42.20
2019-02-12T16:45:25.469Z,42.30
2019-02-12T16:47:51.633Z,42.30
2019-02-12T16:50:17.776Z,42.40
2019-02-12T16:52:43.947Z,42.40
2019-02-12T16:55:10.124Z,42.50
2019-02-12T16:57:36.291Z,42.40
2019-02-12T17:00:02.449Z,42.50
2019-02-12T17:02:28.624Z,42.50
2019-02-12T17:04:54.769Z,42.50
2019-02-12T17:07:20.984Z,42.60
2019-02-12T17:09:52.244Z,42.50
2019-02-12T17:12:13.334Z,42.50
2019-02-12T17:14:39.505Z,42.50
2019-02-12T17:17:05.849Z,42.60
2019-02-12T17:19:31.996Z,42.60
2019-02-12T17:21:58.148Z,42.50
2019-02-12T17:24:24.328Z,42.60
2019-02-12T17:26:50.623Z,42.60
2019-02-12T17:29:16.774Z,42.60
2019-02-12T17:31:42.920Z,42.60
2019-02-12T17:34:09.076Z,42.60
2019-02-12T17:36:35.230Z,42.70
2019-02-12T17:39:01.378Z,42.60
2019-02-12T17:41:27.546Z,42.80
2019-02-12T17:43:53.707Z,42.70
2019-02-12T17:46:19.859Z,42.80
2019-02-12T17:48:46.788Z,42.70
2019-02-12T17:51:12.943Z,42.70
2019-02-12T17:53:39.104Z,42.70
2019-02-12T17:56:05.256Z,42.70
2019-02-12T17:58:31.430Z,42.70
2019-02-12T18:00:57.592Z,42.70
2019-02-12T18:03:23.802Z,42.80
2019-02-12T18:05:50.022Z,42.80
2019-02-12T18:08:16.180Z,42.80
2019-02-12T18:10:42.333Z,42.80
2019-02-12T18:13:09.610Z,42.80
2019-02-12T18:15:35.760Z,42.80
2019-02-12T18:18:01.904Z,42.80
2019-02-12T18:20:28.059Z,42.80
2019-02-12T18:22:54.216Z,42.80
2019-02-12T18:25:20.375Z,42.80
2019-02-12T18:27:46.537Z,42.90
2019-02-12T18:30:12.689Z,42.80
2019-02-12T18:32:38.830Z,42.90
2019-02-12T18:35:04.982Z,42.90
2019-02-12T18:37:31.133Z,42.90
2019-02-12T18:39:57.305Z,43.00
2019-02-12T18:42:24.224Z,42.90
2019-02-12T18:44:50.397Z,43.00
2019-02-12T18:47:16.545Z,42.90
2019-02-12T18:49:42.718Z,42.90
2019-02-12T18:52:08.872Z,42.90
2019-02-12T18:54:35.051Z,42.90
2019-02-12T18:57:01.196Z,43.00
2019-02-12T18:59:27.349Z,42.90
2019-02-12T19:01:53.510Z,43.00
2019-02-12T19:04:19.656Z,43.00
2019-02-12T19:06:45.814Z,43.10
2019-02-12T19:09:12.728Z,43.00
2019-02-12T19:11:48.413Z,43.00
2019-02-12T19:14:05.068Z,43.10
2019-02-12T19:16:31.222Z,43.10
2019-02-12T19:18:57.382Z,42.90
2019-02-12T19:21:23.528Z,42.90
2019-02-12T19:23:49.670Z,43.10
2019-02-12T19:26:15.816Z,43.00
2019-02-12T19:28:41.968Z,43.10
2019-02-12T19:31:08.126Z,43.10
2019-02-12T19:33:34.285Z,43.10
2019-02-12T19:36:00.450Z,43.10
2019-02-12T19:38:26.605Z,43.20
2019-02-12T19:40:52.760Z,43.20
2019-02-12T19:43:18.913Z,43.00
2019-02-12T19:45:45.079Z,43.10
2019-02-12T19:48:11.220Z,43.10
2019-02-12T19:50:37.372Z,43.20
2019-02-12T19:53:03.532Z,43.10
2019-02-12T19:55:29.680Z,43.20
2019-02-12T19:57:55.833Z,43.20
2019-02-12T20:00:21.982Z,43.10
2019-02-12T20:02:49.162Z,43.10
2019-02-12T20:05:15.310Z,43.10
2019-02-12T20:07:41.476Z,43.20
2019-02-12T20:10:07.620Z,43.20
2019-02-12T20:12:33.777Z,43.10
2019-02-12T20:14:59.934Z,43.20
2019-02-12T20:17:26.084Z,43.10
2019-02-12T20:19:52.256Z,43.10
2019-02-12T20:22:18.405Z,43.20
2019-02-12T20:24:44.560Z,43.10
2019-02-12T20:27:10.712Z,43.10
2019-02-12T20:29:36.872Z,43.00
2019-02-12T20:32:03.041Z,43.20
2019-02-12T20:34:29.186Z,43.10
2019-02-12T20:36:56.211Z,43.10
2019-02-12T20:39:22.364Z,43.10
2019-02-12T20:41:48.920Z,43.20
2019-02-12T20:44:15.070Z,43.10
2019-02-12T20:46:41.227Z,43.10
2019-02-12T20:49:07.377Z,43.20
2019-02-12T20:51:34.297Z,43.10
2019-02-12T20:54:00.481Z,43.00
2019-02-12T20:56:26.637Z,43.00
2019-02-12T20:58:52.794Z,43.20
2019-02-12T21:01:18.940Z,43.00
2019-02-12T21:03:45.100Z,43.10
2019-02-12T21:06:11.266Z,43.10
2019-02-12T21:08:37.427Z,43.20
2019-02-12T21:11:03.572Z,43.10
2019-02-12T21:13:29.733Z,43.10
2019-02-12T21:15:55.885Z,43.20
2019-02-12T21:18:22.054Z,43.20
2019-02-12T21:20:48.200Z,43.20
2019-02-12T21:23:14.349Z,43.20
2019-02-12T21:25:40.508Z,43.30
2019-02-12T21:28:06.668Z,43.30
2019-02-12T21:30:32.825Z,43.20
2019-02-12T21:32:58.981Z,43.10
2019-02-12T21:35:25.124Z,43.10
2019-02-12T21:37:51.279Z,43.20
2019-02-12T21:40:17.434Z,43.20
2019-02-12T21:42:43.589Z,43.10
2019-02-12T21:45:09.738Z,43.20
2019-02-12T21:47:35.897Z,43.10
2019-02-12T21:50:02.781Z,43.10
2019-02-12T21:52:28.254Z,43.10
2019-02-12T21:54:54.411Z,43.20
2019-02-12T21:57:20.565Z,43.10
2019-02-12T21:59:46.713Z,43.30
2019-02-12T22:02:12.865Z,43.20
2019-02-12T22:04:39.014Z,43.30
2019-02-12T22:07:05.171Z,43.20
2019-02-12T22:09:31.489Z,43.20
2019-02-12T22:11:57.642Z,43.10
2019-02-12T22:14:23.815Z,43.10
2019-02-12T22:16:49.968Z,43.10
2019-02-12T22:19:16.728Z,43.10
2019-02-12T22:21:42.873Z,43.10
2019-02-12T22:24:09.035Z,43.10
2019-02-12T22:26:35.957Z,43.10
2019-02-12T22:29:02.112Z,43.10
2019-02-12T22:31:28.260Z,43.10
2019-02-12T22:33:54.419Z,43.10
2019-02-12T22:36:20.568Z,43.20
2019-02-12T22:38:46.726Z,43.20
2019-02-12T22:41:12.883Z,43.10
2019-02-12T22:43:42.452Z,43.20
2019-02-12T22:46:08.611Z,43.10
2019-02-12T22:48:34.769Z,43.00
2019-02-12T22:51:00.919Z,43.10
2019-02-12T22:53:27.072Z,43.20
2019-02-12T22:55:53.994Z,43.10
2019-02-12T22:58:20.139Z,43.10
2019-02-12T23:00:46.310Z,43.10
2019-02-12T23:03:12.490Z,43.10
2019-02-12T23:05:38.656Z,43.10
2019-02-12T23:08:04.808Z,43.10
2019-02-12T23:10:30.979Z,43.80
2019-02-12T23:12:57.126Z,43.00
2019-02-12T23:15:23.289Z,43.10
2019-02-12T23:17:49.438Z,43.10
2019-02-12T23:20:15.591Z,43.20
2019-02-12T23:22:41.762Z,43.10
2019-02-12T23:25:07.917Z,43.10
2019-02-12T23:27:34.072Z,43.20
2019-02-12T23:30:00.241Z,43.20
2019-02-12T23:32:26.404Z,43.20
2019-02-12T23:34:57.124Z,43.10
2019-02-12T23:37:18.754Z,43.20
2019-02-12T23:39:45.679Z,43.20
2019-02-12T23:42:11.835Z,43.10
2019-02-12T23:44:37.990Z,43.10
2019-02-12T23:47:04.154Z,43.20
2019-02-12T23:49:30.304Z,43.10
2019-02-12T23:51:56.462Z,43.10
2019-02-12T23:54:22.604Z,43.10
2019-02-12T23:56:48.762Z,43.20
2019-02-12T23:59:14.905Z,43.20
